Grantville, Kansas
Current Conditions -  °F | °C
As of 6:53 PM on Wednesday 22 Oct 2014 (Local Time) from KTOP Reporting Station
Clear Clear  
Wind Chill: 71°   Ceiling: Unl
Heat Index: 71°   Visibility: 10mi
Dew Point: 60°   Wind: 8mph
Humidity: 68%   Direction: 130°SE
Pressure: 30.06"   Gusts: NA
Location:  39.08°N, 95.56°W
Report Text: KTOP 222353Z AUTO 13007KT 10SM CLR 22/16 A3006 RMK AO2 SLP174 T02170156 10267 20217 55000
Loading
Personal Weather Stations






























Interactive Weather Map
Tropical Storm Tracking
New forecast layout! Learn more

10-Day Weather Forecast

Advertisements
Track Severe Weather on mobile